Time;durP1;ratioP1;P1;durP2;ratioP2;P2;SDS_P1;SDS_P2;PMS_P1;PMS_P2;Temp;Humidity;BMP_temperature;BMP_pressure;BME280_temperature;BME280_humidity;BME280_pressure;Samples;Min_cycle;Max_cycle;Signal;HPM_P1;HPM_P2
2024/02/24 00:00:24;;;;;;;4.45;2.17;;;;;;;-0.12;100.00;94225.53;2099960;28;20044;-63
2024/02/24 00:01:25;;;;;;;6.65;2.17;;;;;;;-0.13;100.00;94230.72;2100004;28;20516;-66
2024/02/24 00:02:26;;;;;;;4.55;1.85;;;;;;;-0.16;100.00;94220.59;2091013;28;20047;-66
2024/02/24 00:03:28;;;;;;;4.38;2.28;;;;;;;-0.16;100.00;94229.09;2090769;28;20069;-65
2024/02/24 00:04:29;;;;;;;4.65;2.28;;;;;;;-0.16;100.00;94228.25;2099497;28;20096;-66
2024/02/24 00:05:30;;;;;;;3.47;1.85;;;;;;;-0.19;100.00;94233.44;2099366;28;20052;-65
2024/02/24 00:06:31;;;;;;;3.03;1.83;;;;;;;-0.24;100.00;94226.81;2099774;28;20036;-65
2024/02/24 00:07:32;;;;;;;4.03;2.00;;;;;;;-0.17;100.00;94227.41;2099589;28;20056;-66
2024/02/24 00:08:33;;;;;;;4.40;1.95;;;;;;;-0.18;100.00;94224.94;2099934;28;20040;-65
2024/02/24 00:09:34;;;;;;;3.85;1.92;;;;;;;-0.22;100.00;94227.56;2100078;28;20032;-65
2024/02/24 00:10:35;;;;;;;3.13;1.63;;;;;;;-0.20;100.00;94234.34;2099995;28;20047;-65
2024/02/24 00:11:36;;;;;;;4.53;2.60;;;;;;;-0.22;100.00;94230.09;2098896;28;20511;-66
2024/02/24 00:12:37;;;;;;;3.80;2.08;;;;;;;-0.23;100.00;94233.56;2099184;28;20048;-66
2024/02/24 00:13:39;;;;;;;4.07;1.73;;;;;;;-0.26;100.00;94225.19;2099659;28;20048;-66
2024/02/24 00:14:40;;;;;;;3.38;1.90;;;;;;;-0.27;100.00;94224.34;2099933;28;20381;-66
2024/02/24 00:15:41;;;;;;;4.70;2.30;;;;;;;-0.25;100.00;94235.31;2100103;28;20044;-65
2024/02/24 00:16:42;;;;;;;5.15;2.10;;;;;;;-0.29;100.00;94226.13;2099344;28;20045;-65
2024/02/24 00:17:43;;;;;;;3.80;2.13;;;;;;;-0.34;100.00;94233.09;2099892;28;20043;-66
2024/02/24 00:18:45;;;;;;;2.80;1.75;;;;;;;-0.42;100.00;94229.97;2099861;28;20047;-66
2024/02/24 00:19:46;;;;;;;3.85;2.13;;;;;;;-0.47;100.00;94232.66;2099961;28;20524;-65
2024/02/24 00:20:47;;;;;;;4.57;2.00;;;;;;;-0.49;100.00;94225.94;2099153;28;20040;-65
2024/02/24 00:21:48;;;;;;;4.68;1.67;;;;;;;-0.50;100.00;94226.81;2099115;28;20074;-66
2024/02/24 00:22:49;;;;;;;4.75;1.80;;;;;;;-0.53;100.00;94230.31;2099536;28;20408;-65
2024/02/24 00:23:50;;;;;;;3.42;1.52;;;;;;;-0.56;100.00;94232.09;2099884;28;20036;-66
2024/02/24 00:24:51;;;;;;;3.65;1.67;;;;;;;-0.58;100.00;94233.91;2099175;28;20040;-66
2024/02/24 00:25:52;;;;;;;3.60;1.80;;;;;;;-0.62;100.00;94228.03;2099413;28;20551;-65
2024/02/24 00:26:54;;;;;;;3.75;1.90;;;;;;;-0.58;100.00;94227.06;2099833;28;20032;-66
2024/02/24 00:27:55;;;;;;;4.80;2.10;;;;;;;-0.53;100.00;94230.31;2099828;28;20039;-66
2024/02/24 00:28:56;;;;;;;4.72;2.30;;;;;;;-0.54;100.00;94232.91;2099171;28;20047;-66
2024/02/24 00:29:57;;;;;;;3.78;2.05;;;;;;;-0.57;100.00;94238.09;2099476;28;20095;-65
2024/02/24 00:30:58;;;;;;;4.03;2.03;;;;;;;-0.60;100.00;94235.66;2099355;28;20047;-66
2024/02/24 00:31:59;;;;;;;6.97;2.53;;;;;;;-0.62;100.00;94234.84;2099437;28;20044;-66
2024/02/24 00:33:00;;;;;;;5.63;2.38;;;;;;;-0.68;100.00;94239.28;2099133;28;20048;-66
2024/02/24 00:34:02;;;;;;;6.18;2.40;;;;;;;-0.73;100.00;94236.03;2099063;28;20045;-65
2024/02/24 00:35:03;;;;;;;4.28;2.47;;;;;;;-0.70;100.00;94243.56;2099709;28;20020;-65
2024/02/24 00:36:04;;;;;;;4.78;2.65;;;;;;;-0.74;100.00;94236.94;2099769;28;20040;-65
2024/02/24 00:37:05;;;;;;;5.15;2.50;;;;;;;-0.67;100.00;94246.06;2099098;28;20055;-66
2024/02/24 00:38:06;;;;;;;5.68;2.67;;;;;;;-0.68;100.00;94243.53;2099623;28;20047;-65
2024/02/24 00:39:07;;;;;;;5.10;2.20;;;;;;;-0.71;100.00;94239.38;2099647;28;20032;-66
2024/02/24 00:40:09;;;;;;;6.07;2.65;;;;;;;-0.70;100.00;94245.28;2099729;28;20040;-65
2024/02/24 00:41:10;;;;;;;3.60;2.38;;;;;;;-0.73;100.00;94243.69;2099524;28;20037;-65
2024/02/24 00:42:11;;;;;;;5.63;2.58;;;;;;;-0.73;100.00;94240.28;2099414;28;20048;-65
2024/02/24 00:43:13;;;;;;;4.68;2.30;;;;;;;-0.72;100.00;94242.81;2099633;28;20150;-65
2024/02/24 00:44:14;;;;;;;6.32;2.67;;;;;;;-0.71;100.00;94239.38;2099517;28;20472;-65
2024/02/24 00:45:15;;;;;;;5.70;2.35;;;;;;;-0.76;100.00;94238.69;2098957;28;20059;-65
2024/02/24 00:46:16;;;;;;;4.00;2.50;;;;;;;-0.72;100.00;94236.88;2099655;28;20081;-65
2024/02/24 00:47:17;;;;;;;4.78;2.45;;;;;;;-0.70;100.00;94238.47;2099669;28;20055;-65
2024/02/24 00:48:18;;;;;;;5.30;2.20;;;;;;;-0.71;100.00;94236.81;2099135;28;20484;-66
2024/02/24 00:49:19;;;;;;;4.82;2.75;;;;;;;-0.70;100.00;94237.66;2099885;28;20025;-65
2024/02/24 00:50:21;;;;;;;5.22;2.67;;;;;;;-0.69;100.00;94229.97;2099322;28;20093;-66
2024/02/24 00:51:22;;;;;;;4.82;2.15;;;;;;;-0.72;100.00;94224.97;2099470;28;20049;-66
2024/02/24 00:52:25;;;;;;;4.25;2.47;;;;;;;-0.73;100.00;94228.38;2099089;28;20059;-65
2024/02/24 00:53:27;;;;;;;4.35;2.40;;;;;;;-0.81;100.00;94230.34;2099445;28;20048;-66
2024/02/24 00:54:28;;;;;;;4.70;2.20;;;;;;;-0.86;100.00;94226.28;2098979;28;20502;-65
2024/02/24 00:55:29;;;;;;;6.15;2.45;;;;;;;-0.79;100.00;94226.03;2090664;28;20053;-65
2024/02/24 00:56:30;;;;;;;5.05;2.45;;;;;;;-0.76;100.00;94227.66;2090620;28;20045;-65
2024/02/24 00:57:31;;;;;;;7.05;2.63;;;;;;;-0.83;100.00;94218.53;2098949;28;20052;-65
2024/02/24 00:58:32;;;;;;;6.80;2.67;;;;;;;-0.86;100.00;94228.81;2099493;28;20037;-66
2024/02/24 00:59:33;;;;;;;5.97;2.70;;;;;;;-0.95;100.00;94227.41;2099700;28;20035;-65
2024/02/24 01:00:35;;;;;;;5.63;2.65;;;;;;;-0.90;100.00;94225.53;2099537;28;20045;-65
2024/02/24 01:01:36;;;;;;;4.38;2.30;;;;;;;-0.94;100.00;94224.78;2099301;28;20481;-66
2024/02/24 01:02:37;;;;;;;5.28;2.20;;;;;;;-0.92;100.00;94230.69;2099798;28;20036;-66
2024/02/24 01:03:38;;;;;;;4.65;2.13;;;;;;;-0.88;100.00;94226.34;2099519;28;20052;-65
2024/02/24 01:04:39;;;;;;;5.25;2.22;;;;;;;-0.89;100.00;94233.13;2099349;28;20048;-65
2024/02/24 01:05:41;;;;;;;6.35;2.28;;;;;;;-0.89;100.00;94227.19;2099528;28;20044;-66
2024/02/24 01:06:43;;;;;;;3.30;2.05;;;;;;;-0.83;100.00;94221.06;2099395;28;20550;-65
2024/02/24 01:07:45;;;;;;;3.83;1.95;;;;;;;-0.77;100.00;94229.38;2099441;28;20036;-65
2024/02/24 01:08:46;;;;;;;3.78;2.17;;;;;;;-0.78;100.00;94229.41;2099065;28;20052;-65
2024/02/24 01:09:47;;;;;;;5.90;2.35;;;;;;;-0.83;100.00;94232.09;2099421;28;20476;-65
2024/02/24 01:10:48;;;;;;;4.10;2.40;;;;;;;-0.81;100.00;94227.78;2098774;28;20045;-66
2024/02/24 01:11:49;;;;;;;10.15;2.40;;;;;;;-0.82;100.00;94232.97;2098891;28;20049;-66
2024/02/24 01:12:50;;;;;;;4.03;2.15;;;;;;;-0.84;100.00;94235.53;2099684;28;20049;-65
2024/02/24 01:13:53;;;;;;;4.30;2.15;;;;;;;-0.91;100.00;94236.59;2098738;28;20395;-65
2024/02/24 01:14:54;;;;;;;5.03;2.40;;;;;;;-0.97;100.00;94235.06;2099407;28;20033;-66
2024/02/24 01:15:55;;;;;;;4.97;2.33;;;;;;;-0.98;100.00;94235.97;2098860;28;20587;-65
2024/02/24 01:16:57;;;;;;;5.50;2.40;;;;;;;-0.92;100.00;94240.03;2098956;28;20036;-65
2024/02/24 01:17:58;;;;;;;5.22;2.42;;;;;;;-0.98;100.00;94232.59;2098797;28;20503;-66
2024/02/24 01:18:59;;;;;;;5.18;2.28;;;;;;;-0.96;100.00;94239.31;2099568;28;20028;-65
2024/02/24 01:20:00;;;;;;;5.72;2.25;;;;;;;-0.86;100.00;94239.00;2099169;28;20041;-65
2024/02/24 01:21:02;;;;;;;3.92;2.17;;;;;;;-0.88;100.00;94241.63;2098740;28;20047;-65
2024/02/24 01:22:03;;;;;;;3.42;2.03;;;;;;;-0.85;100.00;94243.25;2099566;28;20044;-65
2024/02/24 01:23:04;;;;;;;6.20;2.40;;;;;;;-0.85;100.00;94227.97;2099428;28;20043;-65
2024/02/24 01:24:05;;;;;;;3.88;2.03;;;;;;;-0.83;100.00;94231.28;2099405;28;20392;-65
2024/02/24 01:25:07;;;;;;;4.97;2.45;;;;;;;-0.81;100.00;94239.72;2099536;28;20040;-65
2024/02/24 01:26:08;;;;;;;6.05;2.33;;;;;;;-0.83;100.00;94237.19;2099551;28;20404;-65
2024/02/24 01:27:09;;;;;;;4.90;2.30;;;;;;;-0.86;100.00;94233.91;2098989;28;20045;-65
2024/02/24 01:28:10;;;;;;;5.00;2.47;;;;;;;-0.85;100.00;94230.50;2099717;28;20025;-65
2024/02/24 01:29:11;;;;;;;5.20;2.70;;;;;;;-0.90;100.00;94233.19;2099402;28;20055;-65
2024/02/24 01:30:12;;;;;;;4.38;2.47;;;;;;;-0.95;100.00;94235.88;2099427;28;20487;-65
2024/02/24 01:31:14;;;;;;;4.63;2.40;;;;;;;-0.98;100.00;94232.59;2098411;28;20040;-65
2024/02/24 01:32:15;;;;;;;4.85;2.58;;;;;;;-1.04;100.00;94241.25;2099492;28;20040;-65
2024/02/24 01:33:16;;;;;;;4.13;2.28;;;;;;;-1.09;100.00;94244.84;2098563;28;20037;-65
2024/02/24 01:34:17;;;;;;;7.78;3.13;;;;;;;-1.18;100.00;94253.56;2099293;28;20040;-65
2024/02/24 01:35:18;;;;;;;5.03;2.58;;;;;;;-1.22;100.00;94257.91;2099669;28;20063;-65
2024/02/24 01:36:21;;;;;;;4.80;2.45;;;;;;;-1.17;100.00;94258.63;2099427;28;20047;-65
2024/02/24 01:37:23;;;;;;;5.05;2.65;;;;;;;-1.14;100.00;94257.69;2098422;28;20059;-65
2024/02/24 01:38:24;;;;;;;5.10;2.50;;;;;;;-1.14;100.00;94261.06;2099161;28;20476;-65
2024/02/24 01:39:25;;;;;;;5.93;3.33;;;;;;;-1.08;100.00;94256.69;2098623;28;20048;-65
2024/02/24 01:40:26;;;;;;;4.60;2.67;;;;;;;-1.08;100.00;94257.50;2098761;28;20051;-65
2024/02/24 01:41:28;;;;;;;3.40;2.10;;;;;;;-1.06;100.00;94263.41;2099185;28;20040;-65
2024/02/24 01:42:29;;;;;;;3.97;2.15;;;;;;;-1.05;100.00;94259.97;2097910;28;20048;-65
2024/02/24 01:43:32;;;;;;;5.00;2.47;;;;;;;-1.07;100.00;94260.88;2098740;28;20515;-64
2024/02/24 01:44:33;;;;;;;4.32;2.47;;;;;;;-1.08;100.00;94257.50;2089303;28;20059;-65
2024/02/24 01:45:34;;;;;;;3.67;2.20;;;;;;;-1.06;100.00;94260.03;2090199;28;20056;-65
2024/02/24 01:46:35;;;;;;;5.32;2.92;;;;;;;-1.06;100.00;94260.03;2098347;28;20048;-65
2024/02/24 01:47:36;;;;;;;3.72;2.20;;;;;;;-1.06;100.00;94272.75;2099048;28;20037;-65
2024/02/24 01:48:37;;;;;;;5.80;2.70;;;;;;;-1.02;100.00;94261.56;2098491;28;20052;-65
2024/02/24 01:49:39;;;;;;;4.30;2.40;;;;;;;-1.08;100.00;94264.31;2090338;28;20045;-65
2024/02/24 01:50:40;;;;;;;5.28;2.40;;;;;;;-0.97;100.00;94269.94;2090074;28;20053;-65
2024/02/24 01:51:41;;;;;;;4.93;2.60;;;;;;;-1.03;100.00;94265.84;2089820;28;20053;-65
2024/02/24 01:52:44;;;;;;;5.28;2.75;;;;;;;-1.02;100.00;94264.13;2090138;28;20143;-65
2024/02/24 01:53:45;;;;;;;4.40;2.50;;;;;;;-1.00;100.00;94270.03;2090253;28;20036;-65
2024/02/24 01:54:46;;;;;;;4.15;2.33;;;;;;;-1.03;100.00;94265.84;2089903;28;20048;-65
2024/02/24 01:55:48;;;;;;;5.70;2.67;;;;;;;-1.11;100.00;94271.16;2098498;28;20041;-65
2024/02/24 01:56:49;;;;;;;5.47;2.38;;;;;;;-1.09;100.00;94268.59;2098881;28;20048;-65
2024/02/24 01:57:50;;;;;;;6.93;2.70;;;;;;;-1.14;100.00;94270.44;2089941;28;20456;-65
2024/02/24 01:58:52;;;;;;;4.57;2.40;;;;;;;-1.22;100.00;94275.75;2082286;28;20037;-65
2024/02/24 01:59:53;;;;;;;5.20;2.70;;;;;;;-1.34;100.00;94268.44;2098341;28;20051;-65
2024/02/24 02:00:54;;;;;;;3.80;2.20;;;;;;;-1.39;100.00;94272.84;2099042;28;20476;-65
2024/02/24 02:01:56;;;;;;;5.28;2.50;;;;;;;-1.44;100.00;94277.25;2081220;28;20052;-65
2024/02/24 02:02:57;;;;;;;5.78;2.85;;;;;;;-1.51;100.00;94275.75;2082058;28;20497;-65
2024/02/24 02:03:58;;;;;;;4.05;2.67;;;;;;;-1.51;100.00;94275.75;2099108;28;20033;-65
2024/02/24 02:04:59;;;;;;;6.10;2.88;;;;;;;-1.48;100.00;94279.03;2098740;28;20052;-65
2024/02/24 02:06:00;;;;;;;4.95;2.67;;;;;;;-1.49;100.00;94279.09;2099128;28;20503;-65
2024/02/24 02:07:02;;;;;;;5.22;2.45;;;;;;;-1.51;100.00;94278.28;2081586;28;20045;-65
2024/02/24 02:08:03;;;;;;;5.03;2.67;;;;;;;-1.57;100.00;94276.75;2081223;28;20042;-65
2024/02/24 02:09:04;;;;;;;6.25;2.78;;;;;;;-1.61;100.00;94283.63;2089911;28;20508;-65
2024/02/24 02:10:05;;;;;;;5.10;2.60;;;;;;;-1.63;100.00;94285.41;2089593;28;20052;-65
2024/02/24 02:11:09;;;;;;;5.13;2.58;;;;;;;-1.64;100.00;94278.63;2098345;28;20041;-66
2024/02/24 02:12:10;;;;;;;5.82;2.47;;;;;;;-1.57;100.00;94279.31;2098925;28;20040;-65
2024/02/24 02:13:11;;;;;;;4.60;2.75;;;;;;;-1.51;100.00;94278.28;2098348;28;20048;-65
2024/02/24 02:14:12;;;;;;;6.25;2.90;;;;;;;-1.53;100.00;94274.94;2098378;28;20068;-65
2024/02/24 02:15:14;;;;;;;4.32;2.58;;;;;;;-1.47;100.00;94282.41;2098389;28;20480;-65
2024/02/24 02:16:15;;;;;;;4.28;2.00;;;;;;;-1.51;100.00;94279.13;2098667;28;20044;-65
2024/02/24 02:17:16;;;;;;;4.60;2.83;;;;;;;-1.56;100.00;94280.97;2098523;28;20499;-66
2024/02/24 02:18:18;;;;;;;4.97;2.70;;;;;;;-1.54;100.00;94270.75;2089793;28;20260;-65
2024/02/24 02:19:19;;;;;;;6.10;2.50;;;;;;;-1.50;100.00;94273.13;2090055;28;20048;-65
2024/02/24 02:20:20;;;;;;;4.78;2.28;;;;;;;-1.50;100.00;94274.84;2098897;28;20044;-65
2024/02/24 02:21:21;;;;;;;6.05;2.88;;;;;;;-1.53;100.00;94275.78;2099021;28;20036;-65
2024/02/24 02:22:23;;;;;;;3.92;2.40;;;;;;;-1.52;100.00;94271.50;2090141;28;20051;-65
2024/02/24 02:23:24;;;;;;;5.05;2.55;;;;;;;-1.56;100.00;94266.50;2089221;28;20055;-65
2024/02/24 02:24:25;;;;;;;5.28;2.50;;;;;;;-1.63;100.00;94267.59;2098343;28;20032;-65
2024/02/24 02:25:26;;;;;;;4.80;2.50;;;;;;;-1.61;100.00;94267.53;2098787;28;20040;-65
2024/02/24 02:26:28;;;;;;;5.60;2.90;;;;;;;-1.61;100.00;94265.81;2098122;28;20055;-65
2024/02/24 02:27:29;;;;;;;5.55;2.35;;;;;;;-1.55;100.00;94267.38;2098750;28;20060;-65
2024/02/24 02:28:30;;;;;;;5.90;3.25;;;;;;;-1.51;100.00;94266.38;2098540;28;20044;-65
2024/02/24 02:29:31;;;;;;;4.18;2.38;;;;;;;-1.53;100.00;94273.22;2098982;28;20041;-65
2024/02/24 02:30:32;;;;;;;4.78;2.65;;;;;;;-1.53;100.00;94265.59;2098835;28;20041;-65
2024/02/24 02:31:33;;;;;;;5.13;2.70;;;;;;;-1.53;100.00;94267.31;2098101;28;20499;-65
2024/02/24 02:32:34;;;;;;;5.85;2.50;;;;;;;-1.52;100.00;94262.19;2099052;28;20028;-65
2024/02/24 02:33:35;;;;;;;6.35;2.30;;;;;;;-1.44;100.00;94260.25;2098621;28;20059;-65
2024/02/24 02:34:37;;;;;;;5.53;2.70;;;;;;;-1.41;100.00;94254.25;2097983;28;20040;-65
2024/02/24 02:35:38;;;;;;;5.85;2.60;;;;;;;-1.38;100.00;94260.06;2098868;28;20503;-65
2024/02/24 02:36:39;;;;;;;5.13;2.50;;;;;;;-1.43;100.00;94264.47;2097713;28;20051;-64
2024/02/24 02:37:40;;;;;;;5.25;2.45;;;;;;;-1.42;100.00;94262.75;2098683;28;20047;-65
2024/02/24 02:38:41;;;;;;;4.60;2.45;;;;;;;-1.37;100.00;94263.44;2098632;28;20044;-65
2024/02/24 02:39:42;;;;;;;4.35;2.33;;;;;;;-1.38;100.00;94265.16;2098172;28;20044;-65
2024/02/24 02:40:43;;;;;;;6.53;2.38;;;;;;;-1.48;100.00;94263.75;2098114;28;20048;-65
2024/02/24 02:41:45;;;;;;;5.55;2.50;;;;;;;-1.38;100.00;94260.06;2098405;28;20049;-65
2024/02/24 02:42:46;;;;;;;5.57;2.58;;;;;;;-1.40;100.00;94266.91;2098646;28;20507;-65
2024/02/24 02:43:47;;;;;;;5.35;2.35;;;;;;;-1.40;100.00;94263.53;2098788;28;20035;-65
2024/02/24 02:44:48;;;;;;;4.15;2.42;;;;;;;-1.39;100.00;94270.28;2098898;28;20051;-64
2024/02/24 02:45:49;;;;;;;4.38;2.55;;;;;;;-1.44;100.00;94273.00;2098792;28;20476;-65
2024/02/24 02:46:50;;;;;;;5.38;2.80;;;;;;;-1.49;100.00;94277.38;2098719;28;20029;-64
2024/02/24 02:47:51;;;;;;;4.50;2.45;;;;;;;-1.57;100.00;94279.31;2098785;28;20040;-65
2024/02/24 02:48:52;;;;;;;7.00;2.70;;;;;;;-1.61;100.00;94286.16;2098788;28;20040;-65
2024/02/24 02:49:54;;;;;;;5.43;2.50;;;;;;;-1.61;100.00;94291.25;2098879;28;20037;-64
2024/02/24 02:50:55;;;;;;;3.95;2.08;;;;;;;-1.58;100.00;94293.75;2098350;28;20047;-65
2024/02/24 02:51:56;;;;;;;5.22;2.17;;;;;;;-1.48;100.00;94290.94;2098040;28;20048;-65
2024/02/24 02:52:57;;;;;;;6.53;2.35;;;;;;;-1.37;100.00;94297.38;2098682;28;20059;-64
2024/02/24 02:53:58;;;;;;;4.30;2.13;;;;;;;-1.27;100.00;94295.41;2098300;28;20043;-64
2024/02/24 02:54:59;;;;;;;4.35;2.30;;;;;;;-1.26;100.00;94294.53;2098913;28;20035;-64
2024/02/24 02:56:00;;;;;;;4.47;1.85;;;;;;;-1.27;100.00;94292.03;2098232;28;20044;-65
2024/02/24 02:57:02;;;;;;;5.95;2.92;;;;;;;-1.28;100.00;94290.34;2098322;28;20044;-64
2024/02/24 02:58:03;;;;;;;5.80;2.25;;;;;;;-1.32;100.00;94287.06;2098306;28;20503;-64
2024/02/24 02:59:04;;;;;;;5.47;2.42;;;;;;;-1.35;100.00;94282.06;2098799;28;20039;-65
2024/02/24 03:00:06;;;;;;;4.22;2.28;;;;;;;-1.42;100.00;94288.22;2098527;28;20044;-64
2024/02/24 03:01:08;;;;;;;4.85;2.38;;;;;;;-1.40;100.00;94286.47;2098533;28;20036;-64
2024/02/24 03:02:09;;;;;;;4.20;2.30;;;;;;;-1.38;100.00;94284.72;2098433;28;20043;-65
2024/02/24 03:03:10;;;;;;;3.95;2.30;;;;;;;-1.36;100.00;94277.88;2098763;28;20036;-64
2024/02/24 03:04:11;;;;;;;4.63;2.35;;;;;;;-1.35;100.00;94287.16;2098597;28;20480;-64
2024/02/24 03:05:13;;;;;;;5.72;2.08;;;;;;;-1.36;100.00;94288.88;2098631;28;20051;-66
2024/02/24 03:06:14;;;;;;;3.75;2.25;;;;;;;-1.42;100.00;94285.66;2098551;28;20040;-64
2024/02/24 03:07:15;;;;;;;4.93;2.40;;;;;;;-1.45;100.00;94288.28;2098242;28;20056;-64
2024/02/24 03:08:16;;;;;;;5.30;2.20;;;;;;;-1.48;100.00;94285.84;2097343;28;20484;-65
2024/02/24 03:09:17;;;;;;;4.47;2.40;;;;;;;-1.48;100.00;94281.56;2098438;28;20404;-65
2024/02/24 03:10:18;;;;;;;5.13;2.22;;;;;;;-1.46;100.00;94286.63;2097894;28;20048;-65
2024/02/24 03:11:19;;;;;;;5.03;2.00;;;;;;;-1.41;100.00;94288.19;2098651;28;20063;-64
2024/02/24 03:12:20;;;;;;;4.15;1.98;;;;;;;-1.40;100.00;94286.47;2098328;28;20045;-64
2024/02/24 03:13:22;;;;;;;4.07;2.20;;;;;;;-1.38;100.00;94285.53;2098492;28;20754;-64
2024/02/24 03:14:23;;;;;;;5.88;2.67;;;;;;;-1.43;100.00;94292.47;2098265;28;20044;-64
2024/02/24 03:15:24;;;;;;;3.83;2.10;;;;;;;-1.46;100.00;94289.19;2097911;28;20055;-64
2024/02/24 03:16:25;;;;;;;3.25;1.85;;;;;;;-1.45;100.00;94283.19;2097868;28;20044;-64
2024/02/24 03:17:26;;;;;;;4.07;1.98;;;;;;;-1.45;100.00;94286.56;2098709;28;20491;-65
2024/02/24 03:18:27;;;;;;;5.40;2.45;;;;;;;-1.46;100.00;94289.19;2097830;28;20059;-64
2024/02/24 03:19:28;;;;;;;4.70;1.83;;;;;;;-1.51;100.00;94289.31;2098716;28;20041;-64
2024/02/24 03:20:29;;;;;;;4.15;2.03;;;;;;;-1.51;100.00;94283.38;2098130;28;20480;-64
2024/02/24 03:21:31;;;;;;;5.10;1.88;;;;;;;-1.47;100.00;94287.50;2098376;28;20048;-64
2024/02/24 03:22:33;;;;;;;4.00;2.20;;;;;;;-1.45;100.00;94293.38;2097537;28;20053;-64
2024/02/24 03:23:34;;;;;;;4.13;2.13;;;;;;;-1.47;100.00;94282.41;2097800;28;20048;-64
2024/02/24 03:24:35;;;;;;;4.47;2.13;;;;;;;-1.46;100.00;94289.19;2097744;28;20056;-65
2024/02/24 03:25:36;;;;;;;4.78;2.20;;;;;;;-1.42;100.00;94293.31;2098473;28;20055;-65
2024/02/24 03:26:38;;;;;;;4.50;2.40;;;;;;;-1.36;100.00;94280.41;2098533;28;20047;-63
2024/02/24 03:27:39;;;;;;;4.03;1.80;;;;;;;-1.30;100.00;94281.94;2098038;28;20052;-64
2024/02/24 03:28:41;;;;;;;3.95;2.10;;;;;;;-1.29;100.00;94289.53;2097787;28;20045;-64
2024/02/24 03:29:42;;;;;;;4.85;1.92;;;;;;;-1.26;100.00;94286.06;2098086;28;20051;-64
2024/02/24 03:30:43;;;;;;;4.40;1.80;;;;;;;-1.31;100.00;94287.91;2098202;28;20075;-64
2024/02/24 03:31:44;;;;;;;4.35;1.92;;;;;;;-1.31;100.00;94288.75;2096971;28;20052;-64
2024/02/24 03:32:45;;;;;;;4.50;1.92;;;;;;;-1.29;100.00;94284.44;2098364;28;20040;-64
2024/02/24 03:33:46;;;;;;;3.35;1.58;;;;;;;-1.31;100.00;94286.22;2098552;28;20040;-65
2024/02/24 03:34:48;;;;;;;3.58;1.85;;;;;;;-1.41;100.00;94284.81;2097397;28;20052;-64
2024/02/24 03:35:49;;;;;;;5.78;1.70;;;;;;;-1.39;100.00;94286.44;2098372;28;20047;-64
2024/02/24 03:36:50;;;;;;;3.33;2.00;;;;;;;-1.42;100.00;94293.31;2097315;28;20079;-64
2024/02/24 03:37:51;;;;;;;3.28;1.70;;;;;;;-1.49;100.00;94292.66;2098091;28;20051;-64
2024/02/24 03:38:52;;;;;;;4.18;1.80;;;;;;;-1.56;100.00;94291.97;2098300;28;20044;-64
2024/02/24 03:39:53;;;;;;;5.35;1.80;;;;;;;-1.57;100.00;94285.22;2098443;28;20040;-64
2024/02/24 03:40:54;;;;;;;4.15;2.30;;;;;;;-1.62;100.00;94288.78;2097472;28;20048;-64
2024/02/24 03:41:55;;;;;;;5.13;2.05;;;;;;;-1.66;100.00;94294.81;2098336;28;20032;-65
2024/02/24 03:42:58;;;;;;;4.65;2.00;;;;;;;-1.68;100.00;94292.31;2098009;28;20052;-64
2024/02/24 03:43:59;;;;;;;5.57;1.80;;;;;;;-1.63;100.00;94290.50;2098295;28;20036;-64
2024/02/24 03:45:02;;;;;;;3.83;1.95;;;;;;;-1.63;100.00;94294.72;2098455;28;20044;-64
2024/02/24 03:46:03;;;;;;;3.17;1.67;;;;;;;-1.56;100.00;94299.59;2089155;28;20112;-65
2024/02/24 03:47:04;;;;;;;4.38;1.98;;;;;;;-1.51;100.00;94301.22;2088928;28;20056;-64
2024/02/24 03:48:06;;;;;;;5.75;1.77;;;;;;;-1.53;100.00;94297.84;2098510;28;20032;-64
2024/02/24 03:49:07;;;;;;;3.03;1.65;;;;;;;-1.53;100.00;94306.31;2098580;28;20043;-64
2024/02/24 03:50:08;;;;;;;2.92;1.58;;;;;;;-1.53;100.00;94301.22;2098193;28;20059;-65
2024/02/24 03:51:09;;;;;;;3.40;1.70;;;;;;;-1.51;100.00;94301.22;2098011;28;20043;-64
2024/02/24 03:52:10;;;;;;;5.60;1.98;;;;;;;-1.52;100.00;94302.06;2097878;28;20055;-64
2024/02/24 03:53:11;;;;;;;2.13;1.27;;;;;;;-1.49;100.00;94296.91;2098490;28;20480;-64
2024/02/24 03:54:12;;;;;;;6.28;1.65;;;;;;;-1.46;100.00;94299.38;2098161;28;20041;-65
2024/02/24 03:55:13;;;;;;;4.30;1.33;;;;;;;-1.40;100.00;94301.75;2098244;28;20041;-64
2024/02/24 03:56:15;;;;;;;2.63;1.48;;;;;;;-1.40;100.00;94301.75;2098625;28;20036;-65
2024/02/24 03:57:16;;;;;;;3.40;1.40;;;;;;;-1.42;100.00;94303.47;2098175;28;20048;-64
2024/02/24 03:58:17;;;;;;;2.92;1.73;;;;;;;-1.43;100.00;94301.81;2097732;28;20053;-64
2024/02/24 03:59:18;;;;;;;3.97;1.63;;;;;;;-1.44;100.00;94301.00;2098325;28;20040;-64
2024/02/24 04:00:20;;;;;;;3.55;1.30;;;;;;;-1.37;100.00;94307.56;2098260;28;20041;-64
2024/02/24 04:01:21;;;;;;;2.58;1.38;;;;;;;-1.33;100.00;94304.06;2088866;28;20060;-64
2024/02/24 04:02:22;;;;;;;2.28;1.30;;;;;;;-1.34;100.00;94311.75;2088735;28;20048;-65
2024/02/24 04:03:23;;;;;;;2.45;1.27;;;;;;;-1.35;100.00;94303.28;2098533;28;20048;-64
2024/02/24 04:04:24;;;;;;;3.85;1.42;;;;;;;-1.33;100.00;94310.88;2098218;28;20473;-65
2024/02/24 04:05:25;;;;;;;4.75;1.52;;;;;;;-1.38;100.00;94298.28;2099650;28;20039;-64
2024/02/24 04:06:26;;;;;;;3.22;1.30;;;;;;;-1.38;100.00;94305.09;2098305;28;20040;-64
2024/02/24 04:07:27;;;;;;;2.97;1.40;;;;;;;-1.43;100.00;94296.72;2098235;28;20400;-64
2024/02/24 04:08:28;;;;;;;4.13;1.92;;;;;;;-1.48;100.00;94304.50;2097704;28;20044;-64
2024/02/24 04:09:29;;;;;;;4.93;1.50;;;;;;;-1.53;100.00;94300.41;2098388;28;20163;-65
2024/02/24 04:10:31;;;;;;;2.88;1.30;;;;;;;-1.53;100.00;94300.41;2098015;28;20052;-64
2024/02/24 04:11:32;;;;;;;3.80;1.40;;;;;;;-1.60;100.00;94298.03;2098140;28;20511;-65
2024/02/24 04:12:33;;;;;;;3.53;1.40;;;;;;;-1.63;100.00;94292.19;2098148;28;20041;-65
2024/02/24 04:13:34;;;;;;;3.33;1.30;;;;;;;-1.63;100.00;94297.25;2097535;28;20049;-65
2024/02/24 04:14:35;;;;;;;3.80;1.65;;;;;;;-1.62;100.00;94296.41;2097772;28;20048;-64
2024/02/24 04:15:36;;;;;;;2.83;1.13;;;;;;;-1.61;100.00;94298.91;2097477;28;20396;-65
2024/02/24 04:16:37;;;;;;;2.65;1.30;;;;;;;-1.59;100.00;94298.88;2098221;28;20044;-65
2024/02/24 04:17:39;;;;;;;2.67;1.58;;;;;;;-1.68;100.00;94294.88;2098337;28;20028;-65
2024/02/24 04:18:40;;;;;;;3.47;1.35;;;;;;;-1.66;100.00;94302.44;2097931;28;20059;-64
2024/02/24 04:19:41;;;;;;;2.35;1.30;;;;;;;-1.57;100.00;94295.41;2097931;28;20055;-64
2024/02/24 04:20:45;;;;;;;2.53;1.25;;;;;;;-1.57;100.00;94302.22;2098372;28;20032;-64
2024/02/24 04:21:46;;;;;;;3.00;1.40;;;;;;;-1.58;100.00;94303.94;2098121;28;20404;-64
2024/02/24 04:22:47;;;;;;;3.00;1.30;;;;;;;-1.67;100.00;94308.41;2098056;28;20047;-65
2024/02/24 04:23:48;;;;;;;2.55;1.02;;;;;;;-1.74;100.00;94314.53;2097598;28;20052;-65
2024/02/24 04:24:49;;;;;;;2.90;1.30;;;;;;;-1.75;100.00;94316.25;2097690;28;20053;-64
2024/02/24 04:25:50;;;;;;;2.67;1.23;;;;;;;-1.66;100.00;94321.09;2098147;28;20055;-64
2024/02/24 04:26:51;;;;;;;3.97;1.58;;;;;;;-1.57;100.00;94315.78;2098197;28;20571;-65
2024/02/24 04:27:53;;;;;;;2.85;1.30;;;;;;;-1.66;100.00;94328.72;2098365;28;20039;-64
2024/02/24 04:28:54;;;;;;;3.25;1.30;;;;;;;-1.69;100.00;94325.44;2097600;28;20049;-64
2024/02/24 04:29:55;;;;;;;2.22;1.23;;;;;;;-1.60;100.00;94336.22;2098054;28;20381;-65
2024/02/24 04:30:56;;;;;;;3.17;1.50;;;;;;;-1.59;100.00;94337.06;2098471;28;20032;-64
2024/02/24 04:31:57;;;;;;;5.30;1.45;;;;;;;-1.59;100.00;94339.59;2098242;28;20040;-64
2024/02/24 04:32:58;;;;;;;4.68;1.50;;;;;;;-1.71;100.00;94334.81;2098143;28;20041;-64
2024/02/24 04:33:59;;;;;;;3.55;1.38;;;;;;;-1.78;100.00;94340.06;2098507;28;20483;-64
2024/02/24 04:35:00;;;;;;;3.40;1.30;;;;;;;-1.71;100.00;94334.81;2099543;28;20043;-64
2024/02/24 04:36:03;;;;;;;3.63;1.67;;;;;;;-1.67;100.00;94341.50;2099364;28;20060;-65
2024/02/24 04:37:04;;;;;;;4.30;1.17;;;;;;;-1.65;100.00;94348.22;2098215;28;20040;-64
2024/02/24 04:38:06;;;;;;;2.60;1.20;;;;;;;-1.72;100.00;94339.09;2098947;28;20053;-64
2024/02/24 04:39:08;;;;;;;2.28;1.25;;;;;;;-1.69;100.00;94336.44;2099194;28;20067;-64
2024/02/24 04:40:09;;;;;;;2.03;1.10;;;;;;;-1.69;100.00;94344.09;2098817;28;20041;-64
2024/02/24 04:41:10;;;;;;;2.78;1.13;;;;;;;-1.65;100.00;94335.50;2099103;28;20048;-64
2024/02/24 04:42:11;;;;;;;2.65;1.30;;;;;;;-1.59;100.00;94330.25;2099733;28;20071;-64
2024/02/24 04:43:13;;;;;;;1.83;1.13;;;;;;;-1.58;100.00;94331.94;2099290;28;20044;-64
2024/02/24 04:44:14;;;;;;;3.88;1.20;;;;;;;-1.61;100.00;94338.78;2098807;28;20040;-64